createdAt,value
2023-04-17T00:00:39.832Z,523.00
2023-04-17T00:01:39.833Z,525.00
2023-04-17T00:02:40.314Z,525.00
2023-04-17T00:03:40.091Z,523.00
2023-04-17T00:04:40.215Z,524.00
2023-04-17T00:05:40.060Z,521.00
2023-04-17T00:06:40.163Z,527.00
2023-04-17T00:07:40.207Z,520.00
2023-04-17T00:08:40.238Z,524.00
2023-04-17T00:09:40.310Z,525.00
2023-04-17T00:10:40.342Z,526.00
2023-04-17T00:11:40.441Z,526.00
2023-04-17T00:12:40.481Z,525.00
2023-04-17T00:13:40.513Z,528.00
2023-04-17T00:14:40.596Z,530.00
2023-04-17T00:15:40.627Z,526.00
2023-04-17T00:16:40.809Z,524.00
2023-04-17T00:17:40.755Z,523.00
2023-04-17T00:18:40.810Z,523.00
2023-04-17T00:19:40.854Z,522.00
2023-04-17T00:20:40.933Z,528.00
2023-04-17T00:21:40.930Z,528.00
2023-04-17T00:22:40.991Z,528.00
2023-04-17T00:23:41.039Z,524.00
2023-04-17T00:24:41.092Z,521.00
2023-04-17T00:25:41.118Z,526.00
2023-04-17T00:26:41.167Z,522.00
2023-04-17T00:27:41.228Z,522.00
2023-04-17T00:28:41.304Z,523.00
2023-04-17T00:29:41.329Z,525.00
2023-04-17T00:30:41.373Z,524.00
2023-04-17T00:31:41.477Z,520.00
2023-04-17T00:32:41.518Z,528.00
2023-04-17T00:33:41.507Z,522.00
2023-04-17T00:34:41.538Z,524.00
2023-04-17T00:35:41.614Z,521.00
2023-04-17T00:36:41.644Z,521.00
2023-04-17T00:37:41.721Z,524.00
2023-04-17T00:38:41.784Z,526.00
2023-04-17T00:39:41.819Z,519.00
2023-04-17T00:40:41.915Z,527.00
2023-04-17T00:41:41.993Z,525.00
2023-04-17T00:42:42.010Z,521.00
2023-04-17T00:43:42.037Z,523.00
2023-04-17T00:44:42.077Z,515.00
2023-04-17T00:45:42.129Z,522.00
2023-04-17T00:46:42.129Z,525.00
2023-04-17T00:47:42.216Z,525.00
2023-04-17T00:48:42.201Z,521.00
2023-04-17T00:49:42.215Z,523.00
2023-04-17T00:50:42.257Z,522.00
2023-04-17T00:51:42.285Z,524.00
2023-04-17T00:52:42.344Z,523.00
2023-04-17T00:53:42.387Z,524.00
2023-04-17T00:54:42.431Z,528.00
2023-04-17T00:55:42.469Z,525.00
2023-04-17T00:56:42.505Z,526.00
2023-04-17T00:57:42.573Z,524.00
2023-04-17T00:58:42.618Z,525.00
2023-04-17T00:59:42.628Z,520.00
2023-04-17T01:00:42.669Z,526.00
2023-04-17T01:01:42.800Z,525.00
2023-04-17T01:02:42.871Z,521.00
2023-04-17T01:03:43.024Z,519.00
2023-04-17T01:04:42.809Z,518.00
2023-04-17T01:05:42.895Z,519.00
2023-04-17T01:06:42.898Z,524.00
2023-04-17T01:07:42.926Z,525.00
2023-04-17T01:08:42.956Z,527.00
2023-04-17T01:09:43.029Z,522.00
2023-04-17T01:10:43.093Z,522.00
2023-04-17T01:11:43.157Z,517.00
2023-04-17T01:12:43.166Z,520.00
2023-04-17T01:13:43.219Z,521.00
2023-04-17T01:14:43.274Z,524.00
2023-04-17T01:15:43.697Z,524.00
2023-04-17T01:16:43.377Z,519.00
2023-04-17T01:17:43.443Z,525.00
2023-04-17T01:18:43.444Z,520.00
2023-04-17T01:19:43.466Z,518.00
2023-04-17T01:20:43.514Z,515.00
2023-04-17T01:21:43.533Z,512.00
2023-04-17T01:22:43.574Z,520.00
2023-04-17T01:23:43.597Z,520.00
2023-04-17T01:24:43.606Z,523.00
2023-04-17T01:25:43.668Z,523.00
2023-04-17T01:26:43.697Z,518.00
2023-04-17T01:27:43.702Z,524.00
2023-04-17T01:28:43.754Z,519.00
2023-04-17T01:29:43.816Z,516.00
2023-04-17T01:30:43.942Z,519.00
2023-04-17T01:31:43.866Z,519.00
2023-04-17T01:32:43.917Z,521.00
2023-04-17T01:33:43.962Z,518.00
2023-04-17T01:34:43.992Z,523.00
2023-04-17T01:35:44.061Z,519.00
2023-04-17T01:36:44.088Z,522.00
2023-04-17T01:37:44.165Z,519.00
2023-04-17T01:38:44.156Z,519.00
2023-04-17T01:39:44.188Z,521.00
2023-04-17T01:40:44.259Z,519.00
2023-04-17T01:41:44.263Z,519.00
2023-04-17T01:42:44.336Z,518.00
2023-04-17T01:43:44.363Z,518.00
2023-04-17T01:44:44.389Z,519.00
2023-04-17T01:45:44.486Z,515.00
2023-04-17T01:46:44.517Z,520.00
2023-04-17T01:47:44.559Z,520.00
2023-04-17T01:48:44.628Z,514.00
2023-04-17T01:49:44.616Z,521.00
2023-04-17T01:50:44.733Z,515.00
2023-04-17T01:51:44.722Z,514.00
2023-04-17T01:52:44.787Z,517.00
2023-04-17T01:53:44.798Z,516.00
2023-04-17T01:54:44.875Z,520.00
2023-04-17T01:55:44.931Z,515.00
2023-04-17T01:56:44.917Z,513.00
2023-04-17T01:57:44.993Z,519.00
2023-04-17T01:58:45.056Z,518.00
2023-04-17T01:59:45.074Z,520.00
2023-04-17T02:00:45.142Z,516.00
2023-04-17T02:01:45.186Z,515.00
2023-04-17T02:02:45.355Z,520.00
2023-04-17T02:03:45.354Z,518.00
2023-04-17T02:04:45.294Z,514.00
2023-04-17T02:05:45.283Z,522.00
2023-04-17T02:06:45.348Z,515.00
2023-04-17T02:07:45.372Z,515.00
2023-04-17T02:08:45.402Z,518.00
2023-04-17T02:09:45.469Z,515.00
2023-04-17T02:10:45.464Z,522.00
2023-04-17T02:11:45.538Z,513.00
2023-04-17T02:12:45.527Z,519.00
2023-04-17T02:13:45.574Z,519.00
2023-04-17T02:14:45.598Z,518.00
2023-04-17T02:15:45.659Z,514.00
2023-04-17T02:16:45.703Z,517.00
2023-04-17T02:17:45.821Z,519.00
2023-04-17T02:18:45.782Z,517.00
2023-04-17T02:19:45.848Z,523.00
2023-04-17T02:20:45.873Z,516.00
2023-04-17T02:21:45.934Z,519.00
2023-04-17T02:22:45.961Z,515.00
2023-04-17T02:23:46.025Z,514.00
2023-04-17T02:24:46.043Z,514.00
2023-04-17T02:25:46.066Z,513.00
2023-04-17T02:26:46.107Z,517.00
2023-04-17T02:27:46.145Z,510.00
2023-04-17T02:28:46.156Z,513.00
2023-04-17T02:29:46.150Z,512.00
2023-04-17T02:30:46.185Z,516.00
2023-04-17T02:31:46.314Z,517.00
2023-04-17T02:32:46.292Z,513.00
2023-04-17T02:33:46.270Z,513.00
2023-04-17T02:34:46.297Z,511.00
2023-04-17T02:35:46.343Z,517.00
2023-04-17T02:36:46.381Z,516.00
2023-04-17T02:37:46.402Z,513.00
2023-04-17T02:38:46.434Z,513.00
2023-04-17T02:39:46.470Z,512.00
2023-04-17T02:40:46.514Z,514.00
2023-04-17T02:41:46.545Z,517.00
2023-04-17T02:42:46.588Z,517.00
2023-04-17T02:43:46.650Z,514.00
2023-04-17T02:44:46.669Z,511.00
2023-04-17T02:45:46.726Z,510.00
2023-04-17T02:46:46.792Z,512.00
2023-04-17T02:47:46.864Z,516.00
2023-04-17T02:48:46.846Z,512.00
2023-04-17T02:49:46.917Z,515.00
2023-04-17T02:50:46.934Z,514.00
2023-04-17T02:51:46.965Z,512.00
2023-04-17T02:52:47.010Z,514.00
2023-04-17T02:53:47.038Z,513.00
2023-04-17T02:54:47.077Z,518.00
2023-04-17T02:55:47.135Z,510.00
2023-04-17T02:56:47.140Z,508.00
2023-04-17T02:57:47.170Z,509.00
2023-04-17T02:58:47.213Z,507.00
2023-04-17T02:59:47.255Z,512.00
2023-04-17T03:00:47.298Z,514.00
2023-04-17T03:01:47.334Z,508.00
2023-04-17T03:02:47.457Z,510.00
2023-04-17T03:03:47.519Z,510.00
2023-04-17T03:04:47.455Z,513.00
2023-04-17T03:05:47.496Z,516.00
2023-04-17T03:06:47.544Z,509.00
2023-04-17T03:07:47.603Z,512.00
2023-04-17T03:08:47.633Z,517.00
2023-04-17T03:09:47.706Z,511.00
2023-04-17T03:10:47.744Z,513.00
2023-04-17T03:11:47.780Z,508.00
2023-04-17T03:12:47.830Z,509.00
2023-04-17T03:13:47.876Z,510.00
2023-04-17T03:14:47.962Z,508.00
2023-04-17T03:15:47.994Z,509.00
2023-04-17T03:16:48.067Z,509.00
2023-04-17T03:17:48.088Z,509.00
2023-04-17T03:18:48.079Z,514.00
2023-04-17T03:19:48.101Z,508.00
2023-04-17T03:20:48.207Z,512.00
2023-04-17T03:21:48.184Z,506.00
2023-04-17T03:22:48.201Z,511.00
2023-04-17T03:23:48.257Z,511.00
2023-04-17T03:24:48.276Z,506.00
2023-04-17T03:25:48.346Z,506.00
2023-04-17T03:26:48.349Z,502.00
2023-04-17T03:27:48.380Z,507.00
2023-04-17T03:28:48.416Z,504.00
2023-04-17T03:29:48.424Z,508.00
2023-04-17T03:30:48.504Z,508.00
2023-04-17T03:31:48.587Z,506.00
2023-04-17T03:32:48.564Z,506.00
2023-04-17T03:33:48.583Z,508.00
2023-04-17T03:34:48.630Z,507.00
2023-04-17T03:35:48.639Z,504.00
2023-04-17T03:36:48.749Z,512.00
2023-04-17T03:37:48.740Z,506.00
2023-04-17T03:38:48.782Z,514.00
2023-04-17T03:39:48.842Z,509.00
2023-04-17T03:40:48.902Z,508.00
2023-04-17T03:41:48.932Z,501.00
2023-04-17T03:42:48.939Z,506.00
2023-04-17T03:43:48.985Z,508.00
2023-04-17T03:44:48.981Z,509.00
2023-04-17T03:45:49.044Z,504.00
2023-04-17T03:46:49.053Z,507.00
2023-04-17T03:47:49.194Z,502.00
2023-04-17T03:48:49.162Z,505.00
2023-04-17T03:49:49.233Z,505.00
2023-04-17T03:50:49.280Z,506.00
2023-04-17T03:51:49.300Z,505.00
2023-04-17T03:52:49.320Z,508.00
2023-04-17T03:53:49.451Z,507.00
2023-04-17T03:54:49.382Z,510.00
2023-04-17T03:55:49.433Z,503.00
2023-04-17T03:56:49.441Z,503.00
2023-04-17T03:57:49.510Z,502.00
2023-04-17T03:58:49.530Z,505.00
2023-04-17T03:59:49.549Z,501.00
2023-04-17T04:00:49.565Z,506.00
2023-04-17T04:01:49.653Z,507.00
2023-04-17T04:02:49.754Z,506.00
2023-04-17T04:03:49.829Z,509.00
2023-04-17T04:04:49.797Z,507.00
2023-04-17T04:05:49.732Z,508.00
2023-04-17T04:06:49.771Z,508.00
2023-04-17T04:07:49.796Z,503.00
2023-04-17T04:08:49.811Z,509.00
2023-04-17T04:09:49.810Z,506.00
2023-04-17T04:10:49.861Z,506.00
2023-04-17T04:11:49.863Z,503.00
2023-04-17T04:12:49.892Z,503.00
2023-04-17T04:13:49.918Z,504.00
2023-04-17T04:14:49.933Z,505.00
2023-04-17T04:15:49.963Z,507.00
2023-04-17T04:16:49.971Z,500.00
2023-04-17T04:17:50.136Z,505.00
2023-04-17T04:18:50.012Z,505.00
2023-04-17T04:19:50.020Z,513.00
2023-04-17T04:20:50.051Z,508.00
2023-04-17T04:21:50.053Z,509.00
2023-04-17T04:22:50.097Z,506.00
2023-04-17T04:23:50.101Z,508.00
2023-04-17T04:24:50.172Z,505.00
2023-04-17T04:25:50.179Z,504.00
2023-04-17T04:26:50.205Z,511.00
2023-04-17T04:27:50.252Z,504.00
2023-04-17T04:28:50.222Z,507.00
2023-04-17T04:29:50.278Z,505.00
2023-04-17T04:30:50.340Z,508.00
2023-04-17T04:31:50.363Z,514.00
2023-04-17T04:32:50.393Z,508.00
2023-04-17T04:33:50.328Z,508.00
2023-04-17T04:34:50.348Z,508.00
2023-04-17T04:35:50.375Z,505.00
2023-04-17T04:36:50.446Z,501.00
2023-04-17T04:37:50.458Z,510.00
2023-04-17T04:38:50.611Z,506.00
2023-04-17T04:39:50.530Z,508.00
2023-04-17T04:40:50.565Z,506.00
2023-04-17T04:41:50.786Z,509.00
2023-04-17T04:42:50.601Z,504.00
2023-04-17T04:43:50.672Z,510.00
2023-04-17T04:44:50.680Z,506.00
2023-04-17T04:45:50.704Z,505.00
2023-04-17T04:46:50.763Z,508.00
2023-04-17T04:47:50.830Z,507.00
2023-04-17T04:48:50.815Z,507.00
2023-04-17T04:49:50.826Z,503.00
2023-04-17T04:50:50.889Z,510.00
2023-04-17T04:51:50.906Z,503.00
2023-04-17T04:52:50.995Z,504.00
2023-04-17T04:53:51.012Z,508.00
2023-04-17T04:54:51.030Z,505.00
2023-04-17T04:55:51.133Z,506.00
2023-04-17T04:56:51.125Z,504.00
2023-04-17T04:57:51.138Z,504.00
2023-04-17T04:58:51.208Z,507.00
2023-04-17T04:59:51.221Z,504.00
2023-04-17T05:00:51.319Z,502.00
2023-04-17T05:01:51.311Z,502.00
2023-04-17T05:02:51.439Z,505.00
2023-04-17T05:03:51.520Z,500.00
2023-04-17T05:04:51.416Z,505.00
2023-04-17T05:05:51.439Z,505.00
2023-04-17T05:06:51.419Z,505.00
2023-04-17T05:07:51.773Z,504.00
2023-04-17T05:08:51.503Z,508.00
2023-04-17T05:09:51.569Z,506.00
2023-04-17T05:10:51.570Z,501.00
2023-04-17T05:11:51.611Z,505.00
2023-04-17T05:12:51.676Z,506.00
2023-04-17T05:13:51.734Z,505.00
2023-04-17T05:14:51.771Z,506.00
2023-04-17T05:15:51.793Z,511.00
2023-04-17T05:16:51.937Z,509.00
2023-04-17T05:17:52.328Z,508.00
2023-04-17T05:18:51.890Z,508.00
2023-04-17T05:19:51.915Z,508.00
2023-04-17T05:20:51.988Z,511.00
2023-04-17T05:21:52.000Z,509.00
2023-04-17T05:22:52.064Z,504.00
2023-04-17T05:23:52.039Z,505.00
2023-04-17T05:24:52.060Z,507.00
2023-04-17T05:25:52.118Z,501.00
2023-04-17T05:26:52.142Z,505.00
2023-04-17T05:27:52.151Z,510.00
2023-04-17T05:28:52.180Z,504.00
2023-04-17T05:29:52.256Z,506.00
2023-04-17T05:30:52.314Z,505.00
2023-04-17T05:31:52.377Z,504.00
2023-04-17T05:32:52.539Z,507.00
2023-04-17T05:33:53.246Z,509.00
2023-04-17T05:34:52.610Z,502.00
2023-04-17T05:35:55.435Z,506.00
2023-04-17T05:36:52.639Z,517.00
2023-04-17T05:37:52.820Z,517.00
2023-04-17T05:38:52.643Z,511.00
2023-04-17T05:39:52.573Z,516.00
2023-04-17T05:40:52.617Z,521.00
2023-04-17T05:41:52.581Z,535.00
2023-04-17T05:42:52.870Z,535.00
2023-04-17T05:43:52.550Z,543.00
2023-04-17T05:44:53.255Z,541.00
2023-04-17T05:45:52.583Z,554.00
2023-04-17T05:46:52.819Z,553.00
2023-04-17T05:47:52.778Z,573.00
2023-04-17T05:48:52.491Z,574.00
2023-04-17T05:49:52.509Z,591.00
2023-04-17T05:50:52.466Z,593.00
2023-04-17T05:51:52.465Z,587.00
2023-04-17T05:52:52.496Z,601.00
2023-04-17T05:53:52.461Z,608.00
2023-04-17T05:54:52.467Z,621.00
2023-04-17T05:55:52.439Z,630.00
2023-04-17T05:56:52.447Z,634.00
2023-04-17T05:57:52.501Z,642.00
2023-04-17T05:58:52.437Z,654.00
2023-04-17T05:59:52.411Z,655.00
2023-04-17T06:00:52.489Z,676.00
2023-04-17T06:01:52.607Z,701.00
2023-04-17T06:02:52.512Z,703.00
2023-04-17T06:03:52.501Z,724.00
2023-04-17T06:04:52.785Z,750.00
2023-04-17T06:05:52.518Z,778.00
2023-04-17T06:06:52.375Z,787.00
2023-04-17T06:07:52.391Z,811.00
2023-04-17T06:08:52.350Z,806.00
2023-04-17T06:09:52.353Z,843.00
2023-04-17T06:10:52.369Z,863.00
2023-04-17T06:11:52.330Z,907.00
2023-04-17T06:12:52.333Z,915.00
2023-04-17T06:13:52.454Z,927.00
2023-04-17T06:14:52.343Z,935.00
2023-04-17T06:15:52.299Z,956.00
2023-04-17T06:16:52.390Z,970.00
2023-04-17T06:17:52.438Z,975.00
2023-04-17T06:18:52.278Z,989.00
2023-04-17T06:19:52.297Z,1006.00
2023-04-17T06:20:52.273Z,1014.00
2023-04-17T06:21:52.316Z,1028.00
2023-04-17T06:22:52.306Z,1041.00
2023-04-17T06:23:52.781Z,1044.00
2023-04-17T06:24:52.348Z,1057.00
2023-04-17T06:25:52.384Z,1062.00
2023-04-17T06:26:52.445Z,1084.00
2023-04-17T06:27:52.418Z,1118.00
2023-04-17T06:28:52.454Z,1098.00
2023-04-17T06:29:52.503Z,1120.00
2023-04-17T06:30:52.519Z,1134.00
2023-04-17T06:31:52.532Z,1144.00
2023-04-17T06:32:52.515Z,1149.00
2023-04-17T06:33:52.528Z,1150.00
2023-04-17T06:34:59.571Z,1171.00
2023-04-17T06:35:53.631Z,1120.00
2023-04-17T06:36:52.619Z,922.00
2023-04-17T06:37:52.588Z,855.00
2023-04-17T06:38:52.519Z,780.00
2023-04-17T06:39:52.539Z,836.00
2023-04-17T06:40:52.818Z,864.00
2023-04-17T06:41:52.776Z,812.00
2023-04-17T06:42:52.545Z,788.00
2023-04-17T06:43:52.497Z,721.00
2023-04-17T06:44:52.508Z,651.00
2023-04-17T06:45:52.586Z,643.00
2023-04-17T06:46:52.910Z,648.00
2023-04-17T06:47:52.492Z,618.00
2023-04-17T06:48:52.482Z,602.00
2023-04-17T06:49:52.565Z,580.00
2023-04-17T06:50:52.477Z,553.00
2023-04-17T06:51:52.810Z,533.00
2023-04-17T06:52:52.466Z,524.00
2023-04-17T06:53:52.803Z,532.00
2023-04-17T06:54:52.495Z,527.00
2023-04-17T06:55:53.288Z,524.00
2023-04-17T06:56:52.595Z,508.00
2023-04-17T06:57:52.684Z,500.00
2023-04-17T06:58:52.719Z,503.00
2023-04-17T06:59:52.781Z,501.00
2023-04-17T07:00:52.843Z,505.00
2023-04-17T07:01:52.974Z,527.00
2023-04-17T07:02:53.089Z,549.00
2023-04-17T07:03:53.082Z,546.00
2023-04-17T07:04:53.225Z,559.00
2023-04-17T07:05:53.102Z,556.00
2023-04-17T07:06:53.122Z,559.00
2023-04-17T07:07:53.232Z,567.00
2023-04-17T07:08:55.527Z,573.00
2023-04-17T07:09:53.227Z,584.00
2023-04-17T07:10:53.250Z,619.00
2023-04-17T07:11:53.270Z,746.00
2023-04-17T07:12:53.280Z,708.00
2023-04-17T07:13:53.373Z,657.00
2023-04-17T07:14:53.374Z,657.00
2023-04-17T07:15:53.498Z,681.00
2023-04-17T07:16:53.570Z,1383.00
2023-04-17T07:17:53.707Z,1922.00
2023-04-17T07:18:53.600Z,1199.00
2023-04-17T07:19:53.656Z,1002.00
2023-04-17T07:20:53.713Z,907.00
2023-04-17T07:21:53.754Z,865.00
2023-04-17T07:22:53.781Z,854.00
2023-04-17T07:23:53.844Z,859.00
2023-04-17T07:24:53.857Z,848.00
2023-04-17T07:25:53.867Z,874.00
2023-04-17T07:26:53.931Z,888.00
2023-04-17T07:27:53.900Z,891.00
2023-04-17T07:28:54.327Z,903.00
2023-04-17T07:29:54.020Z,923.00
2023-04-17T07:30:53.974Z,936.00
2023-04-17T07:31:54.217Z,942.00
2023-04-17T07:32:54.185Z,956.00
2023-04-17T07:33:54.053Z,998.00
2023-04-17T07:34:54.045Z,1022.00
2023-04-17T07:35:54.152Z,1059.00
2023-04-17T07:36:54.068Z,1066.00
2023-04-17T07:37:54.102Z,1071.00
2023-04-17T07:38:54.116Z,1082.00
2023-04-17T07:39:54.123Z,1091.00
2023-04-17T07:40:54.123Z,1099.00
2023-04-17T07:41:54.126Z,1094.00
2023-04-17T07:42:54.129Z,1115.00
2023-04-17T07:43:54.342Z,1128.00
2023-04-17T07:44:54.178Z,1129.00
2023-04-17T07:45:54.173Z,1155.00
2023-04-17T07:46:54.339Z,1152.00
2023-04-17T07:47:54.232Z,1156.00
2023-04-17T07:48:54.161Z,1182.00
2023-04-17T07:49:54.134Z,1188.00
2023-04-17T07:50:54.136Z,1170.00
2023-04-17T07:51:54.178Z,1192.00
2023-04-17T07:52:54.216Z,1185.00
2023-04-17T07:53:54.329Z,1190.00
2023-04-17T07:54:54.328Z,1156.00
2023-04-17T07:55:54.412Z,1113.00
2023-04-17T07:56:54.454Z,1148.00
2023-04-17T07:57:54.512Z,1182.00
2023-04-17T07:58:54.816Z,1146.00
2023-04-17T07:59:54.640Z,1096.00
2023-04-17T08:00:54.704Z,1128.00
2023-04-17T08:01:54.884Z,1184.00
2023-04-17T08:02:55.464Z,1132.00
2023-04-17T08:03:55.252Z,1147.00
2023-04-17T08:04:55.061Z,1145.00
2023-04-17T08:05:55.080Z,1073.00
2023-04-17T08:06:55.053Z,1113.00
2023-04-17T08:07:55.324Z,1115.00
2023-04-17T08:08:55.174Z,1164.00
2023-04-17T08:09:55.220Z,1179.00
2023-04-17T08:10:55.815Z,1138.00
2023-04-17T08:11:57.976Z,1102.00
2023-04-17T08:12:55.353Z,1145.00
2023-04-17T08:13:55.309Z,1190.00
2023-04-17T08:14:55.331Z,1214.00
2023-04-17T08:15:55.269Z,1305.00
2023-04-17T08:16:55.307Z,1280.00
2023-04-17T08:17:55.854Z,1302.00
2023-04-17T08:18:55.247Z,1303.00
2023-04-17T08:19:55.263Z,1330.00
2023-04-17T08:20:55.223Z,1378.00
2023-04-17T08:21:55.324Z,1334.00
2023-04-17T08:22:55.256Z,1327.00
2023-04-17T08:23:55.211Z,1318.00
2023-04-17T08:24:55.239Z,1329.00
2023-04-17T08:25:55.194Z,1285.00
2023-04-17T08:26:55.193Z,1273.00
2023-04-17T08:27:55.258Z,1267.00
2023-04-17T08:28:55.235Z,1266.00
2023-04-17T08:29:55.196Z,1240.00
2023-04-17T08:30:55.227Z,1244.00
2023-04-17T08:32:06.852Z,1246.00
2023-04-17T08:32:56.334Z,1247.00
2023-04-17T08:34:06.248Z,1238.00
2023-04-17T08:34:56.368Z,1248.00
2023-04-17T08:35:55.166Z,1247.00
2023-04-17T08:36:55.174Z,1241.00
2023-04-17T08:37:55.360Z,1223.00
2023-04-17T08:38:55.153Z,1222.00
2023-04-17T08:39:55.359Z,1193.00
2023-04-17T08:40:55.135Z,1190.00
2023-04-17T08:41:55.127Z,1195.00
2023-04-17T08:42:55.187Z,1185.00
2023-04-17T08:43:55.097Z,1169.00
2023-04-17T08:44:55.103Z,1187.00
2023-04-17T08:45:55.300Z,1075.00
2023-04-17T08:46:55.174Z,1086.00
2023-04-17T08:47:55.405Z,1050.00
2023-04-17T08:48:55.315Z,1088.00
2023-04-17T08:49:56.312Z,1114.00
2023-04-17T08:50:55.435Z,1096.00
2023-04-17T08:51:55.510Z,1058.00
2023-04-17T08:52:55.851Z,1086.00
2023-04-17T08:53:55.599Z,1090.00
2023-04-17T08:54:55.675Z,1087.00
2023-04-17T08:55:55.692Z,1071.00
2023-04-17T08:56:55.753Z,1051.00
2023-04-17T08:57:56.389Z,1075.00
2023-04-17T08:58:55.858Z,1070.00
2023-04-17T08:59:55.899Z,1090.00
2023-04-17T09:00:55.961Z,1090.00
2023-04-17T09:01:56.082Z,1103.00
2023-04-17T09:02:56.168Z,1091.00
2023-04-17T09:03:56.238Z,1113.00
2023-04-17T09:04:56.298Z,1093.00
2023-04-17T09:05:56.195Z,1089.00
2023-04-17T09:06:56.233Z,1142.00
2023-04-17T09:07:56.340Z,1016.00
2023-04-17T09:08:56.331Z,1026.00
2023-04-17T09:09:56.346Z,1063.00
2023-04-17T09:10:56.378Z,1068.00
2023-04-17T09:11:56.416Z,1056.00
2023-04-17T09:12:56.499Z,1081.00
2023-04-17T09:13:56.552Z,1065.00
2023-04-17T09:14:56.533Z,1060.00
2023-04-17T09:15:56.659Z,1052.00
2023-04-17T09:16:56.591Z,1030.00
2023-04-17T09:17:56.754Z,995.00
2023-04-17T09:18:56.703Z,982.00
2023-04-17T09:19:56.836Z,957.00
2023-04-17T09:20:56.832Z,884.00
2023-04-17T09:21:56.833Z,900.00
2023-04-17T09:22:56.907Z,819.00
2023-04-17T09:23:56.913Z,768.00
2023-04-17T09:24:57.733Z,786.00
2023-04-17T09:25:57.033Z,775.00
2023-04-17T09:26:57.091Z,665.00
2023-04-17T09:27:57.365Z,654.00
2023-04-17T09:28:57.175Z,698.00
2023-04-17T09:29:57.251Z,626.00
2023-04-17T09:30:57.377Z,648.00
2023-04-17T09:31:57.424Z,629.00
2023-04-17T09:32:57.983Z,615.00
2023-04-17T09:33:57.491Z,595.00
2023-04-17T09:34:57.550Z,617.00
2023-04-17T09:35:57.624Z,606.00
2023-04-17T09:36:57.635Z,622.00
2023-04-17T09:37:57.701Z,610.00
2023-04-17T09:38:57.851Z,604.00
2023-04-17T09:39:57.856Z,589.00
2023-04-17T09:40:57.870Z,554.00
2023-04-17T09:41:57.938Z,581.00
2023-04-17T09:42:58.001Z,602.00
2023-04-17T09:43:58.061Z,588.00
2023-04-17T09:44:58.401Z,603.00
2023-04-17T09:45:58.182Z,594.00
2023-04-17T09:46:58.326Z,602.00
2023-04-17T09:47:58.338Z,595.00
2023-04-17T09:48:58.312Z,564.00
2023-04-17T09:49:58.390Z,570.00
2023-04-17T09:50:58.395Z,576.00
2023-04-17T09:51:58.463Z,555.00
2023-04-17T09:52:58.681Z,554.00
2023-04-17T09:53:58.550Z,550.00
2023-04-17T09:54:58.639Z,551.00
2023-04-17T09:55:58.672Z,558.00
2023-04-17T09:56:58.758Z,539.00
2023-04-17T09:57:58.820Z,532.00
2023-04-17T09:58:58.857Z,553.00
2023-04-17T09:59:59.374Z,534.00
2023-04-17T10:00:59.034Z,528.00
2023-04-17T10:01:59.120Z,549.00
2023-04-17T10:02:59.345Z,559.00
2023-04-17T10:03:59.491Z,566.00
2023-04-17T10:04:59.228Z,559.00
2023-04-17T10:05:59.369Z,543.00
2023-04-17T10:06:59.359Z,552.00
2023-04-17T10:07:59.440Z,554.00
2023-04-17T10:08:59.492Z,573.00
2023-04-17T10:09:59.502Z,561.00
2023-04-17T10:10:59.586Z,538.00
2023-04-17T10:11:59.583Z,556.00
2023-04-17T10:12:59.631Z,575.00
2023-04-17T10:13:59.715Z,560.00
2023-04-17T10:14:59.733Z,571.00
2023-04-17T10:15:59.829Z,561.00
2023-04-17T10:16:59.831Z,551.00
2023-04-17T10:17:59.961Z,551.00
2023-04-17T10:18:59.953Z,549.00
2023-04-17T10:20:00.032Z,539.00
2023-04-17T10:21:00.098Z,515.00
2023-04-17T10:22:00.158Z,529.00
2023-04-17T10:23:00.210Z,521.00
2023-04-17T10:24:00.242Z,528.00
2023-04-17T10:25:00.278Z,524.00
2023-04-17T10:26:00.351Z,537.00
2023-04-17T10:27:00.365Z,524.00
2023-04-17T10:28:01.346Z,531.00
2023-04-17T10:29:00.461Z,567.00
2023-04-17T10:30:00.466Z,556.00
2023-04-17T10:31:00.577Z,577.00
2023-04-17T10:32:00.592Z,599.00
2023-04-17T10:33:00.981Z,606.00
2023-04-17T10:34:00.543Z,597.00
2023-04-17T10:35:00.580Z,569.00
2023-04-17T10:36:00.548Z,598.00
2023-04-17T10:37:00.545Z,590.00
2023-04-17T10:38:00.588Z,574.00
2023-04-17T10:39:00.522Z,597.00
2023-04-17T10:40:00.708Z,586.00
2023-04-17T10:41:00.869Z,574.00
2023-04-17T10:42:00.545Z,585.00
2023-04-17T10:43:00.867Z,568.00
2023-04-17T10:44:00.596Z,561.00
2023-04-17T10:45:00.636Z,553.00
2023-04-17T10:46:00.941Z,567.00
2023-04-17T10:47:00.751Z,567.00
2023-04-17T10:48:01.430Z,565.00
2023-04-17T10:49:00.857Z,573.00
2023-04-17T10:50:00.932Z,583.00
2023-04-17T10:51:01.392Z,581.00
2023-04-17T10:52:01.001Z,590.00
2023-04-17T10:53:01.399Z,590.00
2023-04-17T10:54:01.089Z,588.00
2023-04-17T10:55:01.136Z,593.00
2023-04-17T10:56:01.218Z,588.00
2023-04-17T10:57:01.218Z,583.00
2023-04-17T10:58:01.354Z,586.00
2023-04-17T10:59:01.318Z,591.00
2023-04-17T11:00:01.411Z,573.00
2023-04-17T11:01:01.516Z,579.00
2023-04-17T11:02:01.749Z,571.00
2023-04-17T11:03:01.682Z,549.00
2023-04-17T11:04:01.571Z,568.00
2023-04-17T11:05:01.628Z,558.00
2023-04-17T11:06:01.564Z,584.00
2023-04-17T11:07:01.607Z,565.00
2023-04-17T11:08:01.656Z,567.00
2023-04-17T11:09:01.674Z,549.00
2023-04-17T11:10:01.714Z,556.00
2023-04-17T11:11:01.721Z,561.00
2023-04-17T11:12:02.045Z,555.00
2023-04-17T11:13:01.811Z,520.00
2023-04-17T11:14:01.800Z,535.00
2023-04-17T11:15:02.404Z,576.00
2023-04-17T11:16:01.768Z,596.00
2023-04-17T11:17:01.995Z,586.00
2023-04-17T11:18:01.891Z,593.00
2023-04-17T11:19:01.760Z,612.00
2023-04-17T11:20:01.863Z,623.00
2023-04-17T11:21:01.772Z,603.00
2023-04-17T11:22:01.787Z,616.00
2023-04-17T11:23:01.822Z,617.00
2023-04-17T11:24:01.765Z,618.00
2023-04-17T11:25:01.753Z,616.00
2023-04-17T11:26:01.928Z,622.00
2023-04-17T11:27:01.764Z,623.00
2023-04-17T11:28:01.799Z,632.00
2023-04-17T11:29:01.759Z,621.00
2023-04-17T11:30:01.766Z,624.00
2023-04-17T11:31:01.749Z,627.00
2023-04-17T11:32:01.753Z,622.00
2023-04-17T11:33:01.825Z,637.00
2023-04-17T11:34:01.804Z,642.00
2023-04-17T11:35:01.783Z,619.00
2023-04-17T11:36:01.782Z,626.00
2023-04-17T11:37:01.937Z,620.00
2023-04-17T11:38:01.770Z,630.00
2023-04-17T11:39:01.831Z,630.00
2023-04-17T11:40:01.798Z,629.00
2023-04-17T11:41:01.896Z,625.00
2023-04-17T11:42:01.795Z,627.00
2023-04-17T11:43:01.803Z,627.00
2023-04-17T11:44:01.813Z,627.00
2023-04-17T11:45:03.614Z,626.00
2023-04-17T11:46:01.856Z,633.00
2023-04-17T11:47:01.790Z,626.00
2023-04-17T11:48:01.889Z,630.00
2023-04-17T11:49:01.792Z,632.00
2023-04-17T11:50:01.797Z,620.00
2023-04-17T11:51:01.853Z,629.00
2023-04-17T11:52:01.862Z,632.00
2023-04-17T11:53:01.833Z,618.00
2023-04-17T11:54:01.907Z,635.00
2023-04-17T11:55:01.850Z,632.00
2023-04-17T11:56:01.892Z,619.00
2023-04-17T11:57:01.994Z,624.00
2023-04-17T11:58:01.934Z,625.00
2023-04-17T11:59:01.938Z,625.00
2023-04-17T12:00:02.005Z,629.00
2023-04-17T12:01:01.987Z,621.00
2023-04-17T12:02:02.334Z,621.00
2023-04-17T12:03:02.296Z,626.00
2023-04-17T12:04:02.352Z,624.00
2023-04-17T12:05:02.468Z,614.00
2023-04-17T12:06:02.296Z,616.00
2023-04-17T12:07:02.253Z,612.00
2023-04-17T12:08:02.284Z,611.00
2023-04-17T12:09:02.384Z,609.00
2023-04-17T12:10:02.420Z,608.00
2023-04-17T12:11:02.370Z,612.00
2023-04-17T12:12:02.388Z,615.00
2023-04-17T12:13:02.411Z,608.00
2023-04-17T12:14:02.446Z,610.00
2023-04-17T12:15:02.550Z,605.00
2023-04-17T12:16:02.588Z,603.00
2023-04-17T12:17:02.638Z,603.00
2023-04-17T12:18:02.701Z,603.00
2023-04-17T12:19:02.675Z,599.00
2023-04-17T12:20:02.733Z,602.00
2023-04-17T12:21:02.760Z,602.00
2023-04-17T12:22:02.829Z,601.00
2023-04-17T12:23:02.904Z,597.00
2023-04-17T12:24:02.924Z,594.00
2023-04-17T12:25:03.006Z,602.00